| time (UTC) | temp C | wind direction | speed KPH | gust KPH | rain 1hr cm | rain 24hr cm | rain mn cm | humidity % | barometer mb |
| 20260906095018 | 22 | 232 | 0.0 | 1.6 | 0.00 | 0.94 | 0.00 | 96 | 1011.5 |
| 20260906094017 | 22 | 239 | 0.0 | 1.6 | 0.00 | 0.94 | 0.00 | 96 | 1011.5 |
| 20260906093018 | 22 | 24 | 0.0 | 3.2 | 0.00 | 0.94 | 0.00 | 96 | 1011.5 |
| 20260906092015 | 22 | 21 | 0.0 | 4.8 | 0.00 | 0.94 | 0.00 | 97 | 1011.4 |
| 20260906091018 | 22 | 12 | 0.0 | 1.6 | 0.00 | 0.94 | 0.00 | 96 | 1011.3 |
| 20260906090015 | 22 | 302 | 0.0 | 1.6 | 0.00 | 0.94 | 0.00 | 96 | 1011.4 |
| 20260906085015 | 22 | 308 | 0.0 | 3.2 | 0.00 | 0.94 | 0.00 | 96 | 1011.3 |
| 20260906084015 | 22 | 301 | 0.0 | 1.6 | 0.00 | 0.94 | 0.00 | 96 | 1011.2 |
| 20260906083016 | 22 | 305 | 0.0 | 1.6 | 0.00 | 0.94 | 0.00 | 96 | 1011.2 |
| 20260906082015 | 22 | 17 | 0.0 | 3.2 | 0.00 | 0.94 | 0.00 | 96 | 1011.1 |
| 20260906081016 | 22 | 22 | 0.0 | 1.6 | 0.00 | 0.94 | 0.00 | 96 | 1011.3 |
| 20260906080017 | 22 | 248 | 0.0 | 1.6 | 0.00 | 0.94 | 0.00 | 96 | 1011.2 |
| 20260906075016 | 22 | 27 | 0.0 | 1.6 | 0.00 | 0.94 | 0.00 | 96 | 1011.2 |
| 20260906074016 | 22 | 32 | 0.0 | 3.2 | 0.00 | 0.94 | 0.00 | 96 | 1011.3 |
| 20260906073017 | 22 | 29 | 0.0 | 3.2 | 0.00 | 0.94 | 0.00 | 96 | 1011.4 |
| 20260906072017 | 23 | 24 | 0.0 | 1.6 | 0.00 | 0.94 | 0.00 | 96 | 1011.5 |
| 20260906071017 | 23 | 20 | 0.0 | 3.2 | 0.00 | 0.94 | 0.00 | 96 | 1011.6 |
| 20260906070017 | 23 | 19 | 0.0 | 6.4 | 0.00 | 0.94 | 0.00 | 96 | 1011.7 |
| 20260906065017 | 23 | 13 | 0.0 | 4.8 | 0.00 | 0.94 | 0.00 | 96 | 1011.7 |
| 20260906064017 | 23 | 41 | 0.0 | 3.2 | 0.00 | 0.94 | 0.00 | 96 | 1011.7 |
| 20260906063017 | 23 | 36 | 1.6 | 4.8 | 0.00 | 0.94 | 0.00 | 95 | 1011.9 |
| 20260906062015 | 23 | 316 | 1.6 | 4.8 | 0.00 | 0.94 | 0.00 | 95 | 1012.1 |
| 20260906061015 | 23 | 319 | 1.6 | 3.2 | 0.00 | 0.94 | 0.00 | 95 | 1012.2 |
| 20260906060016 | 23 | 321 | 1.6 | 4.8 | 0.00 | 0.94 | 0.00 | 94 | 1012.4 |
| 20260906055015 | 23 | 312 | 1.6 | 3.2 | 0.00 | 0.94 | 0.00 | 94 | 1012.5 |
| 20260906054015 | 23 | 325 | 1.6 | 3.2 | 0.00 | 0.94 | 0.00 | 95 | 1012.6 |
| 20260906053016 | 24 | 313 | 1.6 | 3.2 | 0.00 | 0.94 | 0.00 | 96 | 1012.7 |
| 20260906052016 | 24 | 327 | 1.6 | 4.8 | 0.00 | 0.94 | 0.00 | 96 | 1012.8 |
| 20260906051016 | 24 | 301 | 1.6 | 4.8 | 0.00 | 0.94 | 0.00 | 95 | 1012.8 |
| 20260906050016 | 23 | 336 | 0.0 | 3.2 | 0.00 | 0.94 | 0.00 | 95 | 1012.9 |
| 20260906045016 | 23 | 244 | 0.0 | 1.6 | 0.00 | 0.94 | 0.00 | 95 | 1012.8 |
| 20260906044016 | 24 | 0.0 | 0.0 | 0.30 | 0.94 | 0.00 | 95 | 1012.8 | |
| 20260906043016 | 24 | 90 | 0.0 | 1.6 | 0.86 | 0.94 | 0.00 | 94 | 1012.9 |
| 20260906042016 | 24 | 169 | 0.0 | 3.2 | 0.91 | 0.94 | 0.00 | 93 | 1012.8 |
| 20260906041017 | 24 | 201 | 0.0 | 3.2 | 0.91 | 0.94 | 0.00 | 94 | 1012.9 |
| 20260906040018 | 24 | 58 | 1.6 | 6.4 | 0.91 | 0.94 | 0.00 | 94 | 1012.8 |
| 20260906035017 | 24 | 171 | 3.2 | 11.3 | 0.91 | 0.91 | 0.91 | 93 | 1012.8 |
| 20260906034015 | 25 | 270 | 1.6 | 4.8 | 0.61 | 0.64 | 0.64 | 87 | 1013.2 |
| 20260906033015 | 26 | 54 | 3.2 | 9.7 | 0.05 | 0.05 | 0.05 | 76 | 1013.4 |
| 20260906032016 | 26 | 40 | 1.6 | 4.8 | 0.00 | 0.03 | 0.03 | 78 | 1013.4 |
| 20260906031015 | 26 | 71 | 1.6 | 3.2 | 0.00 | 0.03 | 0.03 | 79 | 1013.2 |
| 20260906030016 | 26 | 75 | 0.0 | 3.2 | 0.00 | 0.03 | 0.03 | 79 | 1013.1 |
| 20260906025016 | 25 | 126 | 0.0 | 4.8 | 0.00 | 0.03 | 0.03 | 81 | 1013.1 |
| 20260906024016 | 26 | 219 | 0.0 | 1.6 | 0.00 | 0.03 | 0.03 | 81 | 1013.2 |
| 20260906023017 | 26 | 61 | 0.0 | 3.2 | 0.00 | 0.03 | 0.03 | 79 | 1013.4 |
| 20260906022016 | 26 | 358 | 0.0 | 1.6 | 0.00 | 0.03 | 0.03 | 79 | 1013.4 |
| 20260906021017 | 26 | 52 | 0.0 | 1.6 | 0.00 | 0.03 | 0.03 | 78 | 1013.3 |
| 20260906020017 | 26 | 59 | 0.0 | 1.6 | 0.00 | 0.03 | 0.03 | 77 | 1013.3 |
| 20260906015017 | 26 | 202 | 0.0 | 1.6 | 0.00 | 0.03 | 0.03 | 76 | 1013.3 |
| 20260906014017 | 26 | 210 | 0.0 | 3.2 | 0.00 | 0.03 | 0.03 | 75 | 1013.2 |
| 20260906013017 | 26 | 213 | 0.0 | 3.2 | 0.00 | 0.03 | 0.03 | 73 | 1013.1 |
| 20260906012017 | 26 | 232 | 0.0 | 1.6 | 0.00 | 0.03 | 0.03 | 73 | 1013.0 |
| 20260906011018 | 26 | 354 | 1.6 | 3.2 | 0.03 | 0.03 | 0.03 | 73 | 1012.7 |
| 20260906010018 | 26 | 279 | 0.0 | 3.2 | 0.03 | 0.03 | 0.03 | 75 | 1012.6 |
| 20260906005018 | 26 | 77 | 0.0 | 3.2 | 0.03 | 0.03 | 0.03 | 75 | 1012.5 |
| 20260906004015 | 27 | 30 | 1.6 | 4.8 | 0.03 | 0.03 | 0.03 | 75 | 1012.6 |
| 20260906003015 | 27 | 48 | 1.6 | 4.8 | 0.03 | 0.03 | 0.03 | 74 | 1012.3 |
| 20260906002015 | 28 | 80 | 1.6 | 4.8 | 0.00 | 0.00 | 0.00 | 66 | 1012.2 |
| 20260906001016 | 28 | 347 | 1.6 | 3.2 | 0.00 | 0.00 | 0.00 | 64 | 1012.4 |
| 20260906000016 | 28 | 82 | 1.6 | 4.8 | 0.00 | 0.00 | 0.00 | 65 | 1012.1 |
| 20260905235016 | 28 | 69 | 0.0 | 3.2 | 0.00 | 0.00 | 0.00 | 64 | 1012.1 |
| 20260905234016 | 28 | 121 | 0.0 | 1.6 | 0.00 | 0.00 | 0.00 | 63 | 1012.2 |
| 20260905233016 | 28 | 296 | 0.0 | 1.6 | 0.00 | 0.00 | 0.00 | 63 | 1012.2 |
| 20260905232017 | 29 | 56 | 0.0 | 3.2 | 0.00 | 0.00 | 0.00 | 62 | 1012.1 |
| 20260905231017 | 29 | 214 | 0.0 | 3.2 | 0.00 | 0.00 | 0.00 | 62 | 1012.2 |
| 20260905230016 | 30 | 85 | 0.0 | 3.2 | 0.00 | 0.00 | 0.00 | 60 | 1011.9 |
| 20260905225017 | 31 | 97 | 1.6 | 8.0 | 0.00 | 0.00 | 0.00 | 58 | 1012.0 |
| 20260905224017 | 31 | 98 | 1.6 | 9.7 | 0.00 | 0.00 | 0.00 | 58 | 1012.1 |
| 20260905223017 | 33 | 59 | 3.2 | 9.7 | 0.00 | 0.00 | 0.00 | 57 | 1011.7 |
| 20260905222017 | 35 | 30 | 3.2 | 9.7 | 0.00 | 0.00 | 0.00 | 51 | 1011.3 |
| 20260905221017 | 36 | 20 | 0.0 | 1.6 | 0.00 | 0.00 | 0.00 | 49 | 1011.0 |
| 20260905220017 | 37 | 146 | 0.0 | 3.2 | 0.00 | 0.00 | 0.00 | 46 | 1010.9 |
| 20260905215015 | 36 | 240 | 0.0 | 3.2 | 0.00 | 0.00 | 0.00 | 47 | 1010.7 |
| 20260905214018 | 36 | 246 | 0.0 | 1.6 | 0.00 | 0.00 | 0.00 | 48 | 1010.6 |
| 20260905213015 | 36 | 208 | 1.6 | 6.4 | 0.00 | 0.00 | 0.00 | 48 | 1010.5 |
| 20260905212017 | 36 | 289 | 4.8 | 8.0 | 0.00 | 0.00 | 0.00 | 46 | 1010.5 |
| 20260905211015 | 36 | 323 | 1.6 | 4.8 | 0.00 | 0.00 | 0.00 | 44 | 1010.8 |
| 20260905210016 | 36 | 15 | 1.6 | 4.8 | 0.00 | 0.00 | 0.00 | 46 | 1010.9 |
| 20260905205016 | 36 | 306 | 3.2 | 8.0 | 0.00 | 0.00 | 0.00 | 47 | 1010.8 |
| 20260905204016 | 36 | 291 | 0.0 | 3.2 | 0.00 | 0.00 | 0.00 | 45 | 1010.8 |
| 20260905203017 | 36 | 267 | 1.6 | 4.8 | 0.00 | 0.00 | 0.00 | 46 | 1010.7 |
| 20260905202017 | 36 | 266 | 1.6 | 4.8 | 0.00 | 0.00 | 0.00 | 46 | 1010.7 |
| 20260905201016 | 36 | 353 | 1.6 | 6.4 | 0.00 | 0.00 | 0.00 | 46 | 1010.9 |
| 20260905200017 | 36 | 298 | 3.2 | 8.0 | 0.00 | 0.00 | 0.00 | 46 | 1010.9 |
| 20260905195017 | 36 | 322 | 3.2 | 8.0 | 0.00 | 0.00 | 0.00 | 46 | 1011.1 |
| 20260905194017 | 36 | 51 | 1.6 | 8.0 | 0.00 | 0.00 | 0.00 | 46 | 1011.2 |
| 20260905193017 | 36 | 69 | 1.6 | 6.4 | 0.00 | 0.00 | 0.00 | 48 | 1011.1 |
| 20260905192017 | 35 | 75 | 3.2 | 6.4 | 0.00 | 0.00 | 0.00 | 49 | 1011.4 |
| 20260905191018 | 35 | 62 | 1.6 | 4.8 | 0.00 | 0.00 | 0.00 | 49 | 1011.5 |
| 20260905190018 | 35 | 104 | 1.6 | 3.2 | 0.00 | 0.00 | 0.00 | 51 | 1011.9 |
| 20260905185017 | 35 | 101 | 1.6 | 4.8 | 0.00 | 0.00 | 0.00 | 49 | 1012.0 |
| 20260905184018 | 35 | 117 | 3.2 | 9.7 | 0.00 | 0.00 | 0.00 | 47 | 1011.9 |
| 20260905183018 | 35 | 114 | 1.6 | 4.8 | 0.00 | 0.00 | 0.00 | 50 | 1012.0 |
| 20260905182015 | 35 | 84 | 1.6 | 6.4 | 0.00 | 0.00 | 0.00 | 52 | 1012.1 |
| 20260905181016 | 35 | 341 | 1.6 | 6.4 | 0.00 | 0.00 | 0.00 | 52 | 1012.3 |
| 20260905180016 | 35 | 332 | 3.2 | 8.0 | 0.00 | 0.00 | 0.00 | 52 | 1012.3 |
| 20260905175016 | 35 | 110 | 3.2 | 4.8 | 0.00 | 0.00 | 0.00 | 52 | 1012.4 |
| 20260905174016 | 34 | 22 | 1.6 | 4.8 | 0.00 | 0.00 | 0.00 | 52 | 1012.6 |
| 20260905173016 | 34 | 102 | 1.6 | 6.4 | 0.00 | 0.00 | 0.00 | 55 | 1012.7 |
| 20260905172016 | 34 | 74 | 3.2 | 8.0 | 0.00 | 0.00 | 0.00 | 56 | 1012.9 |
| 20260905171016 | 33 | 328 | 1.6 | 3.2 | 0.00 | 0.00 | 0.00 | 57 | 1012.9 |
| 20260905170016 | 33 | 277 | 3.2 | 4.8 | 0.00 | 0.00 | 0.00 | 59 | 1013.1 |
| 20260905165017 | 32 | 285 | 1.6 | 6.4 | 0.00 | 0.00 | 0.00 | 61 | 1013.3 |
| 20260905164017 | 32 | 296 | 3.2 | 9.7 | 0.00 | 0.00 | 0.00 | 61 | 1013.5 |
| 20260905163017 | 33 | 312 | 3.2 | 8.0 | 0.00 | 0.00 | 0.00 | 61 | 1013.7 |
| 20260905162017 | 32 | 293 | 4.8 | 9.7 | 0.00 | 0.00 | 0.00 | 61 | 1013.9 |
| 20260905161017 | 32 | 330 | 1.6 | 6.4 | 0.00 | 0.00 | 0.00 | 63 | 1014.0 |
| 20260905160018 | 32 | 203 | 1.6 | 4.8 | 0.00 | 0.00 | 0.00 | 64 | 1014.2 |
| 20260905155018 | 32 | 313 | 3.2 | 6.4 | 0.00 | 0.00 | 0.00 | 65 | 1014.2 |
| 20260905154015 | 31 | 334 | 1.6 | 4.8 | 0.00 | 0.00 | 0.00 | 66 | 1014.4 |
| 20260905153018 | 31 | 299 | 3.2 | 8.0 | 0.00 | 0.00 | 0.00 | 68 | 1014.4 |
| 20260905152015 | 31 | 306 | 3.2 | 8.0 | 0.00 | 0.00 | 0.00 | 68 | 1014.4 |
| 20260905151015 | 31 | 298 | 3.2 | 8.0 | 0.00 | 0.00 | 0.00 | 68 | 1014.5 |
| 20260905150016 | 30 | 336 | 1.6 | 4.8 | 0.00 | 0.00 | 0.00 | 71 | 1014.8 |
| 20260905145016 | 30 | 55 | 3.2 | 4.8 | 0.00 | 0.00 | 0.00 | 70 | 1015.0 |
| 20260905144016 | 29 | 3 | 1.6 | 6.4 | 0.00 | 0.00 | 0.00 | 73 | 1015.1 |
| 20260905143016 | 29 | 302 | 3.2 | 4.8 | 0.00 | 0.00 | 0.00 | 75 | 1015.2 |
| 20260905142016 | 28 | 75 | 1.6 | 4.8 | 0.00 | 0.00 | 0.00 | 78 | 1015.4 |
| 20260905141017 | 28 | 2 | 1.6 | 4.8 | 0.00 | 0.00 | 0.00 | 79 | 1015.5 |
| 20260905140016 | 27 | 320 | 1.6 | 4.8 | 0.00 | 0.00 | 0.00 | 81 | 1015.6 |
| 20260905135017 | 27 | 295 | 3.2 | 12.9 | 0.00 | 0.00 | 0.00 | 82 | 1015.7 |
| 20260905134017 | 26 | 299 | 1.6 | 3.2 | 0.00 | 0.00 | 0.00 | 86 | 1015.4 |
| 20260905133017 | 26 | 284 | 3.2 | 6.4 | 0.00 | 0.00 | 0.00 | 88 | 1014.5 |
| 20260905132017 | 26 | 290 | 3.2 | 8.0 | 0.00 | 0.00 | 0.00 | 89 | 1014.7 |
| 20260905131017 | 25 | 310 | 1.6 | 6.4 | 0.00 | 0.00 | 0.00 | 90 | 1014.6 |
| 20260905130017 | 25 | 302 | 3.2 | 6.4 | 0.00 | 0.00 | 0.00 | 91 | 1014.6 |
| 20260905125018 | 25 | 311 | 1.6 | 3.2 | 0.00 | 0.00 | 0.00 | 92 | 1014.9 |
| 20260905124017 | 25 | 200 | 1.6 | 4.8 | 0.00 | 0.00 | 0.00 | 92 | 1015.2 |
| 20260905123018 | 24 | 208 | 0.0 | 3.2 | 0.00 | 0.00 | 0.00 | 95 | 1014.9 |
| 20260905122018 | 23 | 207 | 1.6 | 4.8 | 0.00 | 0.00 | 0.00 | 98 | 1014.8 |
| 20260905121015 | 23 | 212 | 1.6 | 4.8 | 0.00 | 0.00 | 0.00 | 98 | 1014.5 |
| 20260905120015 | 23 | 210 | 0.0 | 3.2 | 0.00 | 0.00 | 0.00 | 98 | 1014.0 |
| 20260905115016 | 23 | 332 | 0.0 | 1.6 | 0.00 | 0.00 | 0.00 | 98 | 1014.0 |
| 20260905114016 | 22 | 256 | 0.0 | 1.6 | 0.00 | 0.00 | 0.00 | 98 | 1013.8 |
| 20260905113015 | 22 | 218 | 0.0 | 1.6 | 0.00 | 0.00 | 0.00 | 98 | 1013.9 |
| 20260905112016 | 22 | 56 | 0.0 | 1.6 | 0.00 | 0.00 | 0.00 | 98 | 1013.9 |
| 20260905111016 | 22 | 274 | 0.0 | 1.6 | 0.00 | 0.00 | 0.00 | 98 | 1014.0 |
| 20260905110016 | 22 | 307 | 0.0 | 1.6 | 0.00 | 0.00 | 0.00 | 98 | 1013.9 |
| 20260905105017 | 23 | 275 | 0.0 | 1.6 | 0.00 | 0.00 | 0.00 | 98 | 1013.9 |
| 20260905104017 | 23 | 215 | 0.0 | 1.6 | 0.00 | 0.00 | 0.00 | 98 | 1013.9 |
| 20260905103017 | 23 | 310 | 0.0 | 3.2 | 0.00 | 0.00 | 0.00 | 98 | 1013.8 |
| 20260905102017 | 23 | 306 | 1.6 | 3.2 | 0.00 | 0.00 | 0.00 | 98 | 1013.5 |
| 20260905101017 | 23 | 256 | 0.0 | 1.6 | 0.00 | 0.00 | 0.00 | 98 | 1013.4 |
| 20260905100017 | 23 | 243 | 0.0 | 1.6 | 0.00 | 0.00 | 0.00 | 98 | 1013.3 |